Time;durP1;ratioP1;P1;durP2;ratioP2;P2;SDS_P1;SDS_P2;PMS_P1;PMS_P2;Temp;Humidity;BMP_temperature;BMP_pressure;BME280_temperature;BME280_humidity;BME280_pressure;Samples;Min_cycle;Max_cycle;Signal;HPM_P1;HPM_P2
2022/01/05 00:02:05;;;;;;;;;;;7.20;83.40;;;;;;5002728;28;87158;-39
2022/01/05 00:04:31;;;;;;;;;;;7.20;83.30;;;;;;5003468;28;87578;-40
2022/01/05 00:06:56;;;;;;;;;;;7.20;83.40;;;;;;5002606;28;88461;-39
2022/01/05 00:09:22;;;;;;;;;;;7.20;83.30;;;;;;5002755;28;86738;-40
2022/01/05 00:11:47;;;;;;;;;;;7.20;83.40;;;;;;5002084;28;89028;-40
2022/01/05 00:14:13;;;;;;;;;;;7.20;83.50;;;;;;5002250;28;89466;-40
2022/01/05 00:16:38;;;;;;;;;;;7.20;83.50;;;;;;5002414;28;86868;-39
2022/01/05 00:19:04;;;;;;;;;;;7.20;83.60;;;;;;5005264;28;88797;-40
2022/01/05 00:21:30;;;;;;;;;;;7.20;83.40;;;;;;5002539;28;87014;-40
2022/01/05 00:23:55;;;;;;;;;;;7.20;83.60;;;;;;5002538;28;87399;-39
2022/01/05 00:26:21;;;;;;;;;;;7.20;83.60;;;;;;5001457;28;89213;-39
2022/01/05 00:28:46;;;;;;;;;;;7.20;83.60;;;;;;5003925;28;86381;-40
2022/01/05 00:31:12;;;;;;;;;;;7.20;83.70;;;;;;5006214;28;86872;-40
2022/01/05 00:33:37;;;;;;;;;;;7.20;83.60;;;;;;5005537;28;89848;-39
2022/01/05 00:36:04;;;;;;;;;;;7.20;83.50;;;;;;5005202;28;88064;-39
2022/01/05 00:38:29;;;;;;;;;;;7.20;83.60;;;;;;5005667;28;89977;-39
2022/01/05 00:40:55;;;;;;;;;;;7.20;84.20;;;;;;5008547;28;89348;-39
2022/01/05 00:43:20;;;;;;;;;;;7.10;83.60;;;;;;5005742;28;88925;-40
2022/01/05 00:45:46;;;;;;;;;;;7.10;83.50;;;;;;5005508;28;88188;-40
2022/01/05 00:48:11;;;;;;;;;;;7.10;83.60;;;;;;5005613;28;87132;-40
2022/01/05 00:50:37;;;;;;;;;;;7.10;83.60;;;;;;5005498;28;89322;-39
2022/01/05 00:53:02;;;;;;;;;;;7.10;83.80;;;;;;5005565;28;89075;-40
2022/01/05 00:55:28;;;;;;;;;;;7.10;83.60;;;;;;5005617;28;87199;-39
2022/01/05 00:57:54;;;;;;;;;;;7.10;83.80;;;;;;5005431;28;89020;-40
2022/01/05 01:00:19;;;;;;;;;;;7.10;83.60;;;;;;5004589;28;90010;-39
2022/01/05 01:02:45;;;;;;;;;;;7.10;83.70;;;;;;5008241;28;87009;-39
2022/01/05 01:05:13;;;;;;;;;;;7.10;83.70;;;;;;5005016;28;89855;-39
2022/01/05 01:07:38;;;;;;;;;;;7.10;83.70;;;;;;5005368;28;87090;-40
2022/01/05 01:10:04;;;;;;;;;;;7.10;83.80;;;;;;5005038;28;88524;-40
2022/01/05 01:12:30;;;;;;;;;;;7.10;83.90;;;;;;5005093;28;89899;-40
2022/01/05 01:14:55;;;;;;;;;;;7.00;83.70;;;;;;5005235;28;87173;-40
2022/01/05 01:17:22;;;;;;;;;;;7.00;83.90;;;;;;5005711;28;88664;-39
2022/01/05 01:19:47;;;;;;;;;;;7.00;83.70;;;;;;5004942;28;89633;-39
2022/01/05 01:22:13;;;;;;;;;;;7.00;83.70;;;;;;5005115;28;87075;-39
2022/01/05 01:24:39;;;;;;;;;;;7.00;83.70;;;;;;5007330;28;87804;-39
2022/01/05 01:27:05;;;;;;;;;;;7.00;83.90;;;;;;5004566;28;87184;-40
2022/01/05 01:29:31;;;;;;;;;;;7.00;83.80;;;;;;5004996;28;88687;-40
2022/01/05 01:31:56;;;;;;;;;;;7.00;83.80;;;;;;5004576;28;90050;-40
2022/01/05 01:34:23;;;;;;;;;;;7.00;83.80;;;;;;5004941;28;87178;-40
2022/01/05 01:36:49;;;;;;;;;;;7.00;83.80;;;;;;5004794;28;87813;-39
2022/01/05 01:39:14;;;;;;;;;;;7.00;83.90;;;;;;5004070;28;89315;-39
2022/01/05 01:41:40;;;;;;;;;;;7.00;83.80;;;;;;5004018;28;86378;-40
2022/01/05 01:44:06;;;;;;;;;;;7.00;84.10;;;;;;5004761;28;88338;-40
2022/01/05 01:46:32;;;;;;;;;;;7.00;83.80;;;;;;5007422;28;88474;-40
2022/01/05 01:48:57;;;;;;;;;;;7.00;83.80;;;;;;5003976;28;88899;-40
2022/01/05 01:51:23;;;;;;;;;;;7.00;83.80;;;;;;5004326;28;89915;-39
2022/01/05 01:53:49;;;;;;;;;;;7.00;83.80;;;;;;5004901;28;86843;-40
2022/01/05 01:56:14;;;;;;;;;;;6.90;83.90;;;;;;5004771;28;89127;-40
2022/01/05 01:58:40;;;;;;;;;;;7.00;83.90;;;;;;5004127;28;89394;-40
2022/01/05 02:01:05;;;;;;;;;;;6.90;83.80;;;;;;5004464;28;86997;-39
2022/01/05 02:03:31;;;;;;;;;;;6.90;84.00;;;;;;5004633;28;86913;-39
2022/01/05 02:05:57;;;;;;;;;;;6.90;83.80;;;;;;5004468;28;88697;-39
2022/01/05 02:08:22;;;;;;;;;;;6.90;83.90;;;;;;5007374;28;86923;-40
2022/01/05 02:10:49;;;;;;;;;;;6.90;83.90;;;;;;5003931;28;88545;-39
2022/01/05 02:13:15;;;;;;;;;;;6.90;84.00;;;;;;5003612;28;88053;-40
2022/01/05 02:15:41;;;;;;;;;;;6.90;84.00;;;;;;5004057;28;90105;-40
2022/01/05 02:18:21;;;;;;;;;;;6.90;84.00;;;;;;5003955;28;89592;-40
2022/01/05 02:20:46;;;;;;;;;;;6.90;83.80;;;;;;5004175;28;87121;-39
2022/01/05 02:23:12;;;;;;;;;;;6.90;83.90;;;;;;5003888;28;88026;-40
2022/01/05 02:25:37;;;;;;;;;;;6.90;84.60;;;;;;5003192;28;89614;-39
2022/01/05 02:28:03;;;;;;;;;;;6.90;83.90;;;;;;5006956;28;86994;-40
2022/01/05 02:30:30;;;;;;;;;;;6.90;84.10;;;;;;5004381;28;88174;-39
2022/01/05 02:32:55;;;;;;;;;;;6.90;84.00;;;;;;5003960;28;87102;-40
2022/01/05 02:35:21;;;;;;;;;;;6.90;84.00;;;;;;5004229;28;87364;-39
2022/01/05 02:37:50;;;;;;;;;;;6.90;84.00;;;;;;5002853;28;90518;-39
2022/01/05 02:40:16;;;;;;;;;;;6.90;84.00;;;;;;5003824;28;87126;-39
2022/01/05 02:42:42;;;;;;;;;;;6.80;84.00;;;;;;5003922;28;88864;-40
2022/01/05 02:45:09;;;;;;;;;;;6.80;84.00;;;;;;5003574;28;88332;-40
2022/01/05 02:47:34;;;;;;;;;;;6.80;84.10;;;;;;5003749;28;86837;-40
2022/01/05 02:50:01;;;;;;;;;;;6.80;84.00;;;;;;5006278;28;88990;-39
2022/01/05 02:52:26;;;;;;;;;;;6.80;83.80;;;;;;5003270;28;87172;-40
2022/01/05 02:54:52;;;;;;;;;;;6.80;83.80;;;;;;5004413;28;89208;-40
2022/01/05 02:57:18;;;;;;;;;;;6.80;83.80;;;;;;5003368;28;88286;-39
2022/01/05 02:59:43;;;;;;;;;;;6.80;83.90;;;;;;5003710;28;87170;-39
2022/01/05 03:02:09;;;;;;;;;;;6.80;84.00;;;;;;5003093;28;89137;-40
2022/01/05 03:04:35;;;;;;;;;;;6.80;84.00;;;;;;5003516;28;88489;-39
2022/01/05 03:07:00;;;;;;;;;;;6.80;84.10;;;;;;5003691;28;87249;-40
2022/01/05 03:09:26;;;;;;;;;;;6.70;84.10;;;;;;5003436;28;88720;-41
2022/01/05 03:11:52;;;;;;;;;;;6.70;84.00;;;;;;5006229;28;89966;-39
2022/01/05 03:14:17;;;;;;;;;;;6.80;84.00;;;;;;5003469;28;88386;-40
2022/01/05 03:16:43;;;;;;;;;;;6.70;83.90;;;;;;5003045;28;89344;-39
2022/01/05 03:19:08;;;;;;;;;;;6.70;84.00;;;;;;5004067;28;86428;-40
2022/01/05 03:21:34;;;;;;;;;;;6.70;83.80;;;;;;5003121;28;88379;-39
2022/01/05 03:23:59;;;;;;;;;;;6.70;84.00;;;;;;5003031;28;90032;-40
2022/01/05 03:26:25;;;;;;;;;;;6.70;83.90;;;;;;5001948;28;88106;-40
2022/01/05 03:28:51;;;;;;;;;;;6.70;84.00;;;;;;5003140;28;89942;-40
2022/01/05 03:31:16;;;;;;;;;;;6.70;83.80;;;;;;5002966;28;87949;-39
2022/01/05 03:33:42;;;;;;;;;;;6.70;83.80;;;;;;5006150;28;87217;-39
2022/01/05 03:36:07;;;;;;;;;;;6.70;83.90;;;;;;5002848;28;88462;-40
2022/01/05 03:38:33;;;;;;;;;;;6.70;83.80;;;;;;5003322;28;87130;-39
2022/01/05 03:40:58;;;;;;;;;;;6.70;83.90;;;;;;5003124;28;88871;-39
2022/01/05 03:43:24;;;;;;;;;;;6.70;83.70;;;;;;5003150;28;88681;-39
2022/01/05 03:45:51;;;;;;;;;;;6.70;83.80;;;;;;5003221;28;87122;-40
2022/01/05 03:48:17;;;;;;;;;;;6.70;83.90;;;;;;5002994;28;89178;-39
2022/01/05 03:50:42;;;;;;;;;;;6.60;83.90;;;;;;5002008;28;90600;-39
2022/01/05 03:53:08;;;;;;;;;;;6.60;84.00;;;;;;5002787;28;88116;-40
2022/01/05 03:55:34;;;;;;;;;;;6.60;83.90;;;;;;5005629;28;87519;-39
2022/01/05 03:58:00;;;;;;;;;;;6.60;83.90;;;;;;5002971;28;87073;-40
2022/01/05 04:00:28;;;;;;;;;;;6.60;83.90;;;;;;5002868;28;89024;-39
2022/01/05 04:02:53;;;;;;;;;;;6.60;83.90;;;;;;5002638;28;89280;-39
2022/01/05 04:05:19;;;;;;;;;;;6.60;84.00;;;;;;5006070;28;87035;-40
2022/01/05 04:07:45;;;;;;;;;;;6.60;84.00;;;;;;5006970;28;87968;-41
2022/01/05 04:10:10;;;;;;;;;;;6.60;84.00;;;;;;5005819;28;89743;-40
2022/01/05 04:12:36;;;;;;;;;;;6.60;84.00;;;;;;5006235;28;87142;-40
2022/01/05 04:15:02;;;;;;;;;;;6.60;84.00;;;;;;5005388;28;89289;-40
2022/01/05 04:17:27;;;;;;;;;;;6.60;84.00;;;;;;5008414;28;89420;-40
2022/01/05 04:19:53;;;;;;;;;;;6.50;84.00;;;;;;5006075;28;88852;-40
2022/01/05 04:22:18;;;;;;;;;;;6.50;84.00;;;;;;5005627;28;89587;-39
2022/01/05 04:24:44;;;;;;;;;;;6.50;83.90;;;;;;5006134;28;87228;-39
2022/01/05 04:27:10;;;;;;;;;;;6.50;84.00;;;;;;5005872;28;88946;-39
2022/01/05 04:29:35;;;;;;;;;;;6.50;84.00;;;;;;5005600;28;89428;-40
2022/01/05 04:32:01;;;;;;;;;;;6.50;83.90;;;;;;5006258;28;86197;-39
2022/01/05 04:34:27;;;;;;;;;;;6.50;83.90;;;;;;5006210;28;86818;-40
2022/01/05 04:36:52;;;;;;;;;;;6.50;84.00;;;;;;5007914;28;89536;-40
2022/01/05 04:39:18;;;;;;;;;;;6.50;83.90;;;;;;5005237;28;89151;-40
2022/01/05 04:41:43;;;;;;;;;;;6.50;84.00;;;;;;5005574;28;89808;-39
2022/01/05 04:44:09;;;;;;;;;;;6.50;83.90;;;;;;5005693;28;87142;-40
2022/01/05 04:46:35;;;;;;;;;;;6.40;83.90;;;;;;5005702;28;88859;-39
2022/01/05 04:49:00;;;;;;;;;;;6.40;84.10;;;;;;5005394;28;89012;-39
2022/01/05 04:51:26;;;;;;;;;;;6.40;84.00;;;;;;5005407;28;87130;-39
2022/01/05 04:53:51;;;;;;;;;;;6.40;84.10;;;;;;5005597;28;89412;-40
2022/01/05 04:56:17;;;;;;;;;;;6.40;83.90;;;;;;5005572;28;88693;-40
2022/01/05 04:58:43;;;;;;;;;;;6.40;84.20;;;;;;5008623;28;87141;-40
2022/01/05 05:01:08;;;;;;;;;;;6.40;84.10;;;;;;5004987;28;89947;-39
2022/01/05 05:03:34;;;;;;;;;;;6.30;84.20;;;;;;5004716;28;88106;-40
2022/01/05 05:05:59;;;;;;;;;;;6.30;84.20;;;;;;5005071;28;90479;-40
2022/01/05 05:08:25;;;;;;;;;;;6.30;84.30;;;;;;5005025;28;89750;-40
2022/01/05 05:10:50;;;;;;;;;;;6.40;84.10;;;;;;5005711;28;87416;-40
2022/01/05 05:13:16;;;;;;;;;;;6.40;83.90;;;;;;5005166;28;89161;-39
2022/01/05 05:15:41;;;;;;;;;;;6.30;83.90;;;;;;5004721;28;87856;-40
2022/01/05 05:18:07;;;;;;;;;;;6.40;84.00;;;;;;5005109;28;87074;-39
2022/01/05 05:20:33;;;;;;;;;;;6.30;83.90;;;;;;5008204;28;88708;-40
2022/01/05 05:22:59;;;;;;;;;;;6.30;83.80;;;;;;5005090;28;87161;-39
2022/01/05 05:25:24;;;;;;;;;;;6.30;83.80;;;;;;5004609;28;88225;-40
2022/01/05 05:27:50;;;;;;;;;;;6.40;83.80;;;;;;5004190;28;89314;-40
2022/01/05 05:30:16;;;;;;;;;;;6.30;83.70;;;;;;5004967;28;87149;-40
2022/01/05 05:32:41;;;;;;;;;;;6.30;83.60;;;;;;5005068;28;88090;-40
2022/01/05 05:35:07;;;;;;;;;;;6.30;83.50;;;;;;5004396;28;88781;-40
2022/01/05 05:37:32;;;;;;;;;;;6.30;83.60;;;;;;5004528;28;87143;-40
2022/01/05 05:39:58;;;;;;;;;;;6.30;83.50;;;;;;5005022;28;87509;-40
2022/01/05 05:42:25;;;;;;;;;;;6.30;83.60;;;;;;5007282;28;89433;-40
2022/01/05 05:44:51;;;;;;;;;;;6.30;83.70;;;;;;5005351;28;88846;-40
2022/01/05 05:47:17;;;;;;;;;;;6.20;83.80;;;;;;5004291;28;89674;-40
2022/01/05 05:49:44;;;;;;;;;;;6.20;83.80;;;;;;5004749;28;87173;-40
2022/01/05 05:52:09;;;;;;;;;;;6.20;83.90;;;;;;5003996;28;87968;-40
2022/01/05 05:54:35;;;;;;;;;;;6.20;83.80;;;;;;5004511;28;88056;-39
2022/01/05 05:57:00;;;;;;;;;;;6.20;83.70;;;;;;5004563;28;87139;-40
2022/01/05 05:59:26;;;;;;;;;;;6.20;83.80;;;;;;5004639;28;88939;-40
2022/01/05 06:01:52;;;;;;;;;;;6.20;83.70;;;;;;5004198;28;89310;-40
2022/01/05 06:04:19;;;;;;;;;;;6.20;83.80;;;;;;5007379;28;87137;-39
2022/01/05 06:06:45;;;;;;;;;;;6.20;83.80;;;;;;5003845;28;89778;-39
2022/01/05 06:09:10;;;;;;;;;;;6.20;83.80;;;;;;5005018;28;86396;-40
2022/01/05 06:11:36;;;;;;;;;;;6.20;83.70;;;;;;5002966;28;89839;-40
2022/01/05 06:14:01;;;;;;;;;;;6.10;83.70;;;;;;5004262;28;87842;-40
2022/01/05 06:16:27;;;;;;;;;;;6.20;83.70;;;;;;5003624;28;88008;-40
2022/01/05 06:18:53;;;;;;;;;;;6.20;83.70;;;;;;5004204;28;88597;-39
2022/01/05 06:21:18;;;;;;;;;;;6.10;83.70;;;;;;5003635;28;89508;-39
2022/01/05 06:23:44;;;;;;;;;;;6.10;83.70;;;;;;5004169;28;87019;-40
2022/01/05 06:26:09;;;;;;;;;;;6.10;83.70;;;;;;5005537;28;88937;-39
2022/01/05 06:28:35;;;;;;;;;;;6.10;83.70;;;;;;5004388;28;87091;-40
2022/01/05 06:31:00;;;;;;;;;;;6.20;83.60;;;;;;5004350;28;87408;-40
2022/01/05 06:33:26;;;;;;;;;;;6.10;83.50;;;;;;5004158;28;88239;-39
2022/01/05 06:35:51;;;;;;;;;;;6.20;83.50;;;;;;5004053;28;87142;-40
2022/01/05 06:38:17;;;;;;;;;;;6.10;83.40;;;;;;5003812;28;88733;-40
2022/01/05 06:40:42;;;;;;;;;;;6.10;83.50;;;;;;5002733;28;90715;-45
2022/01/05 06:43:08;;;;;;;;;;;6.10;83.50;;;;;;5003743;28;87189;-39
2022/01/05 06:45:34;;;;;;;;;;;6.10;83.60;;;;;;5006505;28;89163;-39
2022/01/05 06:48:00;;;;;;;;;;;6.10;83.50;;;;;;5003906;28;86835;-39
2022/01/05 06:50:26;;;;;;;;;;;6.10;83.40;;;;;;5003925;28;87751;-40
2022/01/05 06:52:53;;;;;;;;;;;6.10;83.50;;;;;;5003315;28;89073;-40
2022/01/05 06:55:18;;;;;;;;;;;6.10;83.40;;;;;;5003757;28;86987;-40
2022/01/05 06:57:44;;;;;;;;;;;6.10;83.50;;;;;;5003890;28;88120;-40
2022/01/05 07:00:10;;;;;;;;;;;6.10;83.30;;;;;;5003384;28;89370;-40
2022/01/05 07:02:36;;;;;;;;;;;6.10;83.30;;;;;;5002394;28;87030;-39
2022/01/05 07:05:02;;;;;;;;;;;6.10;83.30;;;;;;5003049;28;89084;-40
2022/01/05 07:07:28;;;;;;;;;;;6.10;83.20;;;;;;5005688;28;88133;-40
2022/01/05 07:09:53;;;;;;;;;;;6.10;83.20;;;;;;5003476;28;88823;-39
2022/01/05 07:12:18;;;;;;;;;;;6.10;83.20;;;;;;5003117;28;89584;-40
2022/01/05 07:14:44;;;;;;;;;;;6.10;83.20;;;;;;5003619;28;87134;-40
2022/01/05 07:17:10;;;;;;;;;;;6.00;83.40;;;;;;5003344;28;88786;-40
2022/01/05 07:19:35;;;;;;;;;;;6.00;83.30;;;;;;5003298;28;88091;-39
2022/01/05 07:22:01;;;;;;;;;;;6.10;83.20;;;;;;5003443;28;86379;-39
2022/01/05 07:24:27;;;;;;;;;;;6.10;83.30;;;;;;5003307;28;88120;-40
2022/01/05 07:26:52;;;;;;;;;;;6.10;83.20;;;;;;5002626;28;88812;-39
2022/01/05 07:29:18;;;;;;;;;;;6.10;83.20;;;;;;5005500;28;88050;-40
2022/01/05 07:31:44;;;;;;;;;;;6.10;83.20;;;;;;5003041;28;88207;-40
2022/01/05 07:34:11;;;;;;;;;;;6.00;83.00;;;;;;5003230;28;87146;-40
2022/01/05 07:36:36;;;;;;;;;;;6.00;83.20;;;;;;5003075;28;87555;-39
2022/01/05 07:39:03;;;;;;;;;;;6.00;83.30;;;;;;5004212;28;89506;-40
2022/01/05 07:41:29;;;;;;;;;;;6.00;83.30;;;;;;5006500;28;87099;-40
2022/01/05 07:43:55;;;;;;;;;;;6.00;83.40;;;;;;5006626;28;87814;-40
2022/01/05 07:46:20;;;;;;;;;;;6.00;83.30;;;;;;5006701;28;89071;-40
2022/01/05 07:48:46;;;;;;;;;;;6.00;83.30;;;;;;5006545;28;87210;-39
2022/01/05 07:51:12;;;;;;;;;;;6.00;83.20;;;;;;5008793;28;88863;-39
2022/01/05 07:53:37;;;;;;;;;;;6.00;83.10;;;;;;5005732;28;88062;-40
2022/01/05 07:56:03;;;;;;;;;;;6.00;83.10;;;;;;5006365;28;89695;-40
2022/01/05 07:58:29;;;;;;;;;;;6.00;83.70;;;;;;5005944;28;89683;-39
2022/01/05 08:00:54;;;;;;;;;;;6.00;83.00;;;;;;5006470;28;87149;-39
2022/01/05 08:03:20;;;;;;;;;;;6.00;83.10;;;;;;5006619;28;87444;-40
2022/01/05 08:05:45;;;;;;;;;;;6.00;83.20;;;;;;5005981;28;89796;-39
2022/01/05 08:08:11;;;;;;;;;;;6.00;83.10;;;;;;5006224;28;87332;-40
2022/01/05 08:10:36;;;;;;;;;;;6.00;83.20;;;;;;5006595;28;89252;-40
2022/01/05 08:13:02;;;;;;;;;;;6.00;83.20;;;;;;5008845;28;89535;-39
2022/01/05 08:15:28;;;;;;;;;;;6.00;83.10;;;;;;5006195;28;87913;-40
2022/01/05 08:17:53;;;;;;;;;;;6.00;83.20;;;;;;5005012;28;90758;-40
2022/01/05 08:20:19;;;;;;;;;;;6.00;83.30;;;;;;5006274;28;87114;-39
2022/01/05 08:22:45;;;;;;;;;;;6.00;83.30;;;;;;5005690;28;89256;-39
2022/01/05 08:25:12;;;;;;;;;;;6.00;83.20;;;;;;5005894;28;88004;-39
2022/01/05 08:27:45;;;;;;;;;;;5.90;83.30;;;;;;5005935;28;87113;-39
2022/01/05 08:30:22;;;;;;;;;;;6.00;83.30;;;;;;5006170;28;89591;-39
2022/01/05 08:32:48;;;;;;;;;;;5.90;83.50;;;;;;5005866;28;88201;-39
2022/01/05 08:35:14;;;;;;;;;;;5.90;83.30;;;;;;5008730;28;86320;-40
2022/01/05 08:37:44;;;;;;;;;;;6.00;83.30;;;;;;5005334;28;89644;-40
2022/01/05 08:40:14;;;;;;;;;;;5.90;83.30;;;;;;5006086;28;87073;-40
2022/01/05 08:42:40;;;;;;;;;;;5.90;83.70;;;;;;5005156;28;88841;-40
2022/01/05 08:45:06;;;;;;;;;;;5.90;83.70;;;;;;5005683;28;87251;-39
2022/01/05 08:47:32;;;;;;;;;;;5.90;83.80;;;;;;5005723;28;87090;-40
2022/01/05 08:49:58;;;;;;;;;;;5.80;84.00;;;;;;5004996;28;88432;-39
2022/01/05 08:52:24;;;;;;;;;;;5.90;83.80;;;;;;5005300;28;89279;-41
2022/01/05 08:54:49;;;;;;;;;;;5.90;84.00;;;;;;5008508;28;86990;-40
2022/01/05 08:57:15;;;;;;;;;;;5.80;84.20;;;;;;5005146;28;89453;-39
2022/01/05 08:59:41;;;;;;;;;;;5.80;84.20;;;;;;5006075;28;86282;-40
2022/01/05 09:02:07;;;;;;;;;;;5.80;84.00;;;;;;5005445;28;88445;-39
2022/01/05 09:04:33;;;;;;;;;;;5.80;84.00;;;;;;5005012;28;89212;-40
2022/01/05 09:06:59;;;;;;;;;;;5.80;84.30;;;;;;5004808;28;88056;-40
2022/01/05 09:09:25;;;;;;;;;;;5.80;84.00;;;;;;5005477;28;88729;-39
2022/01/05 09:11:51;;;;;;;;;;;5.80;84.00;;;;;;5005426;28;87152;-40
2022/01/05 09:14:17;;;;;;;;;;;5.80;84.00;;;;;;5005308;28;87133;-40
2022/01/05 09:16:42;;;;;;;;;;;5.80;84.20;;;;;;5007749;28;88951;-39
2022/01/05 09:19:08;;;;;;;;;;;5.80;84.30;;;;;;5005302;28;87205;-40
2022/01/05 09:21:34;;;;;;;;;;;5.80;84.50;;;;;;5005367;28;88852;-39
2022/01/05 09:23:59;;;;;;;;;;;5.90;84.20;;;;;;5005606;28;87400;-39
2022/01/05 09:26:25;;;;;;;;;;;5.80;84.40;;;;;;5004497;28;87192;-40
2022/01/05 09:28:50;;;;;;;;;;;5.80;84.40;;;;;;5005141;28;89101;-39
2022/01/05 09:31:16;;;;;;;;;;;5.90;84.40;;;;;;5003790;28;89819;-40
2022/01/05 09:33:41;;;;;;;;;;;5.80;84.30;;;;;;5004866;28;87288;-39
2022/01/05 09:36:20;;;;;;;;;;;5.90;84.30;;;;;;5005089;28;87287;-40
2022/01/05 09:44:02;;;;;;;;;;;5.90;84.40;;;;;;5004891;28;87276;-40
2022/01/05 09:46:30;;;;;;;;;;;5.90;84.10;;;;;;5004606;28;87276;-39
2022/01/05 09:49:10;;;;;;;;;;;5.90;84.20;;;;;;5005698;28;87366;-40
2022/01/05 09:51:37;;;;;;;;;;;5.90;84.00;;;;;;5003051;28;91271;-40
2022/01/05 09:54:03;;;;;;;;;;;5.90;84.70;;;;;;5004753;28;87074;-39
2022/01/05 09:56:33;;;;;;;;;;;5.90;84.30;;;;;;5004222;28;88063;-40
2022/01/05 09:59:01;;;;;;;;;;;5.90;84.20;;;;;;5004140;28;89648;-39
2022/01/05 10:01:30;;;;;;;;;;;5.90;84.20;;;;;;5006527;28;87152;-40
2022/01/05 10:03:56;;;;;;;;;;;6.00;84.00;;;;;;5004214;28;89319;-40
2022/01/05 10:06:22;;;;;;;;;;;5.90;83.90;;;;;;5004444;28;87120;-40
2022/01/05 10:08:47;;;;;;;;;;;5.90;83.90;;;;;;5004435;28;89167;-40
2022/01/05 10:11:13;;;;;;;;;;;5.90;84.10;;;;;;5004149;28;87120;-40
2022/01/05 10:13:38;;;;;;;;;;;6.00;83.90;;;;;;5004869;28;86307;-40
2022/01/05 10:16:05;;;;;;;;;;;6.00;83.80;;;;;;5004279;28;87663;-40
2022/01/05 10:18:40;;;;;;;;;;;6.00;83.90;;;;;;5003929;28;89672;-40
2022/01/05 10:21:06;;;;;;;;;;;6.00;83.80;;;;;;5003587;28;87867;-40
2022/01/05 10:23:38;;;;;;;;;;;6.00;83.80;;;;;;5006915;28;89857;-40
2022/01/05 10:26:22;;;;;;;;;;;6.00;83.80;;;;;;5003801;28;87306;-40
2022/01/05 10:28:48;;;;;;;;;;;6.00;83.90;;;;;;5004267;28;88979;-39
2022/01/05 10:31:15;;;;;;;;;;;6.00;83.90;;;;;;5003602;28;89353;-40
2022/01/05 10:33:40;;;;;;;;;;;6.00;83.80;;;;;;5004120;28;87162;-40
2022/01/05 10:36:06;;;;;;;;;;;6.00;83.90;;;;;;5003870;28;88780;-40
2022/01/05 10:38:31;;;;;;;;;;;6.00;83.70;;;;;;5003853;28;89254;-39
2022/01/05 10:40:57;;;;;;;;;;;6.00;83.70;;;;;;5004110;28;86860;-40
2022/01/05 10:43:22;;;;;;;;;;;6.00;83.70;;;;;;5006456;28;88791;-40
2022/01/05 10:45:51;;;;;;;;;;;6.00;83.70;;;;;;5003389;28;88154;-39
2022/01/05 10:48:18;;;;;;;;;;;6.00;83.80;;;;;;5003867;28;88893;-40
2022/01/05 10:50:45;;;;;;;;;;;6.00;83.70;;;;;;5003656;28;87174;-40
2022/01/05 10:53:15;;;;;;;;;;;6.00;83.80;;;;;;5003550;28;86991;-40
2022/01/05 10:55:44;;;;;;;;;;;6.00;83.70;;;;;;5003740;28;88994;-39
2022/01/05 10:58:10;;;;;;;;;;;6.00;83.70;;;;;;5003295;28;88720;-39
2022/01/05 11:00:37;;;;;;;;;;;6.10;83.70;;;;;;5003627;28;87075;-40
2022/01/05 11:03:23;;;;;;;;;;;6.10;83.70;;;;;;5004090;28;88712;-39
2022/01/05 11:06:02;;;;;;;;;;;6.10;83.80;;;;;;5006015;28;89621;-40
2022/01/05 11:08:29;;;;;;;;;;;6.10;84.10;;;;;;5003457;28;88896;-40
2022/01/05 11:10:55;;;;;;;;;;;6.10;84.00;;;;;;5002595;28;89016;-42
2022/01/05 11:13:20;;;;;;;;;;;6.40;81.50;;;;;;5003214;28;87182;-39
2022/01/05 11:15:46;;;;;;;;;;;6.90;79.00;;;;;;5003290;28;89362;-39
2022/01/05 11:18:21;;;;;;;;;;;7.00;78.60;;;;;;5002985;28;89619;-39
2022/01/05 11:20:47;;;;;;;;;;;6.80;80.30;;;;;;5003518;28;87284;-39
2022/01/05 11:23:13;;;;;;;;;;;6.50;82.30;;;;;;5003320;28;88594;-40
2022/01/05 11:25:41;;;;;;;;;;;6.60;83.20;;;;;;5002573;28;88208;-40
2022/01/05 11:28:07;;;;;;;;;;;6.50;83.50;;;;;;5006969;28;86579;-39
2022/01/05 11:30:34;;;;;;;;;;;6.50;83.30;;;;;;5003188;28;87867;-39
2022/01/05 11:32:59;;;;;;;;;;;6.50;82.90;;;;;;5003246;28;87141;-39
2022/01/05 11:35:25;;;;;;;;;;;6.50;83.10;;;;;;5002670;28;88955;-39
2022/01/05 11:37:51;;;;;;;;;;;6.50;83.40;;;;;;5002627;28;89675;-39
2022/01/05 11:40:17;;;;;;;;;;;6.50;83.30;;;;;;5003406;28;87211;-40
2022/01/05 11:42:45;;;;;;;;;;;6.50;83.30;;;;;;5003133;28;88818;-40
2022/01/05 11:45:11;;;;;;;;;;;6.50;83.30;;;;;;5002848;28;89261;-38
2022/01/05 11:47:40;;;;;;;;;;;6.50;83.60;;;;;;5002691;28;87173;-39
2022/01/05 11:50:27;;;;;;;;;;;6.50;83.70;;;;;;5005586;28;88915;-40
2022/01/05 11:53:00;;;;;;;;;;;6.50;83.80;;;;;;5003422;28;85999;-40
2022/01/05 11:55:26;;;;;;;;;;;6.50;83.80;;;;;;5002980;28;88391;-39
2022/01/05 11:58:10;;;;;;;;;;;6.50;83.80;;;;;;5002362;28;89447;-40
2022/01/05 12:00:36;;;;;;;;;;;6.50;84.00;;;;;;5002460;28;88147;-39
2022/01/05 12:03:01;;;;;;;;;;;6.50;83.90;;;;;;5003246;28;88533;-39
2022/01/05 12:05:27;;;;;;;;;;;6.50;84.00;;;;;;5002673;28;88014;-39
2022/01/05 12:07:53;;;;;;;;;;;6.50;84.10;;;;;;5002860;28;87212;-40
2022/01/05 12:10:23;;;;;;;;;;;6.50;84.60;;;;;;5002976;28;87433;-39
2022/01/05 12:12:57;;;;;;;;;;;6.60;84.60;;;;;;5005227;28;89241;-39
2022/01/05 12:15:43;;;;;;;;;;;6.60;84.50;;;;;;5002637;28;87873;-39
2022/01/05 12:18:09;;;;;;;;;;;6.60;84.40;;;;;;5002808;28;88555;-39
2022/01/05 12:20:35;;;;;;;;;;;6.60;84.70;;;;;;5002563;28;86855;-40
2022/01/05 12:23:18;;;;;;;;;;;6.60;84.80;;;;;;5002745;28;87215;-40
2022/01/05 12:26:09;;;;;;;;;;;6.60;85.00;;;;;;5003530;28;88847;-40
2022/01/05 12:28:39;;;;;;;;;;;6.60;85.10;;;;;;5003765;28;87080;-40
2022/01/05 12:31:05;;;;;;;;;;;6.60;85.10;;;;;;5006199;28;87891;-39
2022/01/05 12:33:45;;;;;;;;;;;6.70;85.20;;;;;;5005450;28;89555;-39
2022/01/05 12:36:11;;;;;;;;;;;6.70;85.30;;;;;;5008925;28;87079;-39
2022/01/05 12:38:39;;;;;;;;;;;6.70;85.30;;;;;;5005577;28;89291;-39
2022/01/05 12:41:24;;;;;;;;;;;6.70;85.40;;;;;;5005775;28;86868;-39
2022/01/05 12:43:51;;;;;;;;;;;6.70;85.40;;;;;;5006091;28;88881;-38
2022/01/05 12:46:36;;;;;;;;;;;6.70;85.50;;;;;;5005399;28;88633;-40
2022/01/05 12:49:04;;;;;;;;;;;6.80;85.70;;;;;;5006031;28;87210;-39
2022/01/05 12:51:29;;;;;;;;;;;6.80;85.70;;;;;;5005171;28;89060;-39
2022/01/05 12:54:00;;;;;;;;;;;6.80;85.70;;;;;;5005202;28;89671;-40
2022/01/05 12:56:46;;;;;;;;;;;6.80;85.80;;;;;;5008376;28;86976;-39
2022/01/05 12:59:21;;;;;;;;;;;6.80;85.80;;;;;;5004956;28;89335;-39
2022/01/05 13:01:48;;;;;;;;;;;6.80;85.90;;;;;;5005466;28;87111;-40
2022/01/05 13:04:14;;;;;;;;;;;6.90;86.00;;;;;;5005546;28;88884;-40
2022/01/05 13:06:41;;;;;;;;;;;6.90;86.00;;;;;;5004930;28;88364;-39
2022/01/05 13:09:09;;;;;;;;;;;6.90;86.10;;;;;;5005504;28;86293;-40
2022/01/05 13:11:35;;;;;;;;;;;6.90;86.10;;;;;;5005348;28;88221;-39
2022/01/05 13:14:15;;;;;;;;;;;6.90;86.30;;;;;;5004934;28;89361;-40
2022/01/05 13:16:42;;;;;;;;;;;6.90;86.20;;;;;;5004482;28;88207;-40
2022/01/05 13:19:13;;;;;;;;;;;7.00;86.20;;;;;;5007715;28;89739;-39
2022/01/05 13:21:42;;;;;;;;;;;6.90;86.30;;;;;;5004882;28;86919;-39
2022/01/05 13:24:08;;;;;;;;;;;7.00;86.40;;;;;;5005195;28;88275;-40
2022/01/05 13:26:33;;;;;;;;;;;7.00;86.40;;;;;;5004428;28;89996;-39
2022/01/05 13:29:18;;;;;;;;;;;7.00;86.40;;;;;;5005501;28;87049;-40
2022/01/05 13:32:04;;;;;;;;;;;7.00;86.60;;;;;;5005113;28;88776;-40
2022/01/05 13:34:34;;;;;;;;;;;7.00;86.40;;;;;;5005354;28;88802;-39
2022/01/05 13:36:59;;;;;;;;;;;7.10;86.60;;;;;;5004663;28;87118;-39
2022/01/05 13:39:45;;;;;;;;;;;7.10;86.60;;;;;;5004750;28;89032;-39
2022/01/05 13:42:12;;;;;;;;;;;7.10;86.60;;;;;;5006938;28;88943;-39
2022/01/05 13:44:39;;;;;;;;;;;7.10;86.60;;;;;;5004675;28;89728;-40
2022/01/05 13:47:09;;;;;;;;;;;7.10;86.70;;;;;;5004539;28;87802;-39
2022/01/05 13:49:34;;;;;;;;;;;7.10;86.80;;;;;;5004846;28;87003;-39
2022/01/05 13:52:00;;;;;;;;;;;7.10;86.80;;;;;;5004729;28;88755;-39
2022/01/05 13:54:26;;;;;;;;;;;7.20;86.80;;;;;;5004232;28;89903;-39
2022/01/05 13:56:51;;;;;;;;;;;7.20;86.80;;;;;;5004534;28;87236;-39
2022/01/05 13:59:17;;;;;;;;;;;7.20;86.90;;;;;;5004993;28;88889;-40
2022/01/05 14:01:54;;;;;;;;;;;7.20;86.90;;;;;;5004164;28;89599;-39
2022/01/05 14:04:20;;;;;;;;;;;7.20;86.90;;;;;;5007773;28;86907;-40
2022/01/05 14:06:56;;;;;;;;;;;7.20;86.80;;;;;;5003254;28;91003;-39
2022/01/05 14:09:27;;;;;;;;;;;7.20;86.90;;;;;;5004670;28;86925;-40
2022/01/05 14:11:57;;;;;;;;;;;7.30;86.80;;;;;;5004353;28;88093;-40
2022/01/05 14:14:22;;;;;;;;;;;7.30;86.90;;;;;;5004163;28;89555;-40
2022/01/05 14:16:48;;;;;;;;;;;7.30;86.90;;;;;;5004479;28;86862;-40
2022/01/05 14:19:15;;;;;;;;;;;7.30;87.00;;;;;;5004216;28;88638;-40
2022/01/05 14:21:41;;;;;;;;;;;7.30;86.90;;;;;;5002517;28;91092;-40
2022/01/05 14:24:09;;;;;;;;;;;7.30;86.90;;;;;;5004672;28;86278;-39
2022/01/05 14:26:38;;;;;;;;;;;7.30;86.90;;;;;;5006136;28;86959;-40
2022/01/05 14:29:04;;;;;;;;;;;7.40;87.00;;;;;;5004254;28;87155;-40
2022/01/05 14:31:32;;;;;;;;;;;7.40;87.10;;;;;;5003552;28;89024;-39
2022/01/05 14:33:58;;;;;;;;;;;7.40;87.10;;;;;;5003842;28;89494;-40
2022/01/05 14:36:27;;;;;;;;;;;7.40;87.20;;;;;;5003826;28;87212;-39